sensor_id;sensor_type;location;lat;lon;timestamp;temperature;humidity
63283;DHT22;49407;51.388;0.048;2022-10-16T00:01:57;11.80;99.90
63283;DHT22;49407;51.388;0.048;2022-10-16T00:04:26;11.80;99.90
63283;DHT22;49407;51.388;0.048;2022-10-16T00:06:53;11.70;99.90
63283;DHT22;49407;51.388;0.048;2022-10-16T00:09:19;11.70;99.90
63283;DHT22;49407;51.388;0.048;2022-10-16T00:11:46;11.80;99.90
63283;DHT22;49407;51.388;0.048;2022-10-16T00:14:14;11.80;99.90
63283;DHT22;49407;51.388;0.048;2022-10-16T00:16:42;11.90;99.90
63283;DHT22;49407;51.388;0.048;2022-10-16T00:19:11;12.00;99.90
63283;DHT22;49407;51.388;0.048;2022-10-16T00:21:38;12.00;99.90
63283;DHT22;49407;51.388;0.048;2022-10-16T00:24:08;12.10;99.90
63283;DHT22;49407;51.388;0.048;2022-10-16T00:26:36;12.20;99.90
63283;DHT22;49407;51.388;0.048;2022-10-16T00:29:04;12.20;99.90
63283;DHT22;49407;51.388;0.048;2022-10-16T00:31:32;12.20;99.90
63283;DHT22;49407;51.388;0.048;2022-10-16T00:34:02;12.10;99.90
63283;DHT22;49407;51.388;0.048;2022-10-16T00:36:29;12.00;99.90
63283;DHT22;49407;51.388;0.048;2022-10-16T00:38:57;12.00;99.90
63283;DHT22;49407;51.388;0.048;2022-10-16T00:41:31;11.80;99.90
63283;DHT22;49407;51.388;0.048;2022-10-16T00:47:03;11.70;99.90
63283;DHT22;49407;51.388;0.048;2022-10-16T00:49:30;11.70;99.90
63283;DHT22;49407;51.388;0.048;2022-10-16T00:51:57;11.60;99.90
63283;DHT22;49407;51.388;0.048;2022-10-16T00:54:29;11.60;99.90
63283;DHT22;49407;51.388;0.048;2022-10-16T00:57:00;11.60;99.90
63283;DHT22;49407;51.388;0.048;2022-10-16T00:59:31;11.60;99.90
63283;DHT22;49407;51.388;0.048;2022-10-16T01:01:59;11.60;99.90
63283;DHT22;49407;51.388;0.048;2022-10-16T01:04:31;11.60;99.90
63283;DHT22;49407;51.388;0.048;2022-10-16T01:07:24;11.50;99.90
63283;DHT22;49407;51.388;0.048;2022-10-16T01:13:18;11.50;99.90
63283;DHT22;49407;51.388;0.048;2022-10-16T01:15:59;11.50;99.90
63283;DHT22;49407;51.388;0.048;2022-10-16T01:18:37;11.50;99.90
63283;DHT22;49407;51.388;0.048;2022-10-16T01:21:09;11.40;99.90
63283;DHT22;49407;51.388;0.048;2022-10-16T01:29:51;11.20;99.90
63283;DHT22;49407;51.388;0.048;2022-10-16T01:32:36;11.20;99.90
63283;DHT22;49407;51.388;0.048;2022-10-16T01:35:22;11.10;99.90
63283;DHT22;49407;51.388;0.048;2022-10-16T01:40:36;11.10;99.90
63283;DHT22;49407;51.388;0.048;2022-10-16T01:43:33;11.10;99.90
63283;DHT22;49407;51.388;0.048;2022-10-16T01:46:03;11.00;99.90
63283;DHT22;49407;51.388;0.048;2022-10-16T01:48:31;11.00;99.90
63283;DHT22;49407;51.388;0.048;2022-10-16T01:51:04;11.00;99.90
63283;DHT22;49407;51.388;0.048;2022-10-16T01:53:34;11.10;99.90
63283;DHT22;49407;51.388;0.048;2022-10-16T01:56:04;11.20;99.90
63283;DHT22;49407;51.388;0.048;2022-10-16T01:58:36;11.30;99.90
63283;DHT22;49407;51.388;0.048;2022-10-16T02:01:05;11.50;99.90
63283;DHT22;49407;51.388;0.048;2022-10-16T02:03:38;11.60;99.90
63283;DHT22;49407;51.388;0.048;2022-10-16T02:06:07;11.70;99.90
63283;DHT22;49407;51.388;0.048;2022-10-16T02:08:34;11.70;99.90
63283;DHT22;49407;51.388;0.048;2022-10-16T02:11:02;11.80;99.90
63283;DHT22;49407;51.388;0.048;2022-10-16T02:13:37;11.90;99.90
63283;DHT22;49407;51.388;0.048;2022-10-16T02:16:09;11.90;99.90
63283;DHT22;49407;51.388;0.048;2022-10-16T02:18:36;11.90;99.90
63283;DHT22;49407;51.388;0.048;2022-10-16T02:21:19;11.90;99.90
63283;DHT22;49407;51.388;0.048;2022-10-16T02:23:58;11.80;99.90
63283;DHT22;49407;51.388;0.048;2022-10-16T02:26:31;11.80;99.90
63283;DHT22;49407;51.388;0.048;2022-10-16T02:29:02;11.70;99.90
63283;DHT22;49407;51.388;0.048;2022-10-16T02:31:34;11.70;99.90
63283;DHT22;49407;51.388;0.048;2022-10-16T02:34:04;11.60;99.90
63283;DHT22;49407;51.388;0.048;2022-10-16T02:36:33;11.60;99.90
63283;DHT22;49407;51.388;0.048;2022-10-16T02:39:02;11.50;99.90
63283;DHT22;49407;51.388;0.048;2022-10-16T02:41:31;11.50;99.90
63283;DHT22;49407;51.388;0.048;2022-10-16T02:44:04;11.40;99.90
63283;DHT22;49407;51.388;0.048;2022-10-16T02:46:30;11.40;99.90
63283;DHT22;49407;51.388;0.048;2022-10-16T02:48:57;11.30;99.90
63283;DHT22;49407;51.388;0.048;2022-10-16T02:51:24;11.30;99.90
63283;DHT22;49407;51.388;0.048;2022-10-16T02:53:52;11.20;99.90
63283;DHT22;49407;51.388;0.048;2022-10-16T02:56:19;11.20;99.90
63283;DHT22;49407;51.388;0.048;2022-10-16T02:58:46;11.20;99.90
63283;DHT22;49407;51.388;0.048;2022-10-16T03:01:13;11.20;99.90
63283;DHT22;49407;51.388;0.048;2022-10-16T03:03:41;11.10;99.90
63283;DHT22;49407;51.388;0.048;2022-10-16T03:06:08;11.10;99.90
63283;DHT22;49407;51.388;0.048;2022-10-16T03:08:35;11.00;99.90
63283;DHT22;49407;51.388;0.048;2022-10-16T03:11:02;11.00;99.90
63283;DHT22;49407;51.388;0.048;2022-10-16T03:13:29;11.00;99.90
63283;DHT22;49407;51.388;0.048;2022-10-16T03:15:56;11.00;99.90
63283;DHT22;49407;51.388;0.048;2022-10-16T03:18:22;10.90;99.90
63283;DHT22;49407;51.388;0.048;2022-10-16T03:20:49;10.80;99.90
63283;DHT22;49407;51.388;0.048;2022-10-16T03:23:16;10.80;99.90
63283;DHT22;49407;51.388;0.048;2022-10-16T03:25:43;10.80;99.90
63283;DHT22;49407;51.388;0.048;2022-10-16T03:28:13;10.80;99.90
63283;DHT22;49407;51.388;0.048;2022-10-16T03:30:40;10.80;99.90
63283;DHT22;49407;51.388;0.048;2022-10-16T03:33:07;10.80;99.90
63283;DHT22;49407;51.388;0.048;2022-10-16T03:35:34;10.80;99.90
63283;DHT22;49407;51.388;0.048;2022-10-16T03:38:01;10.80;99.90
63283;DHT22;49407;51.388;0.048;2022-10-16T03:40:28;10.80;99.90
63283;DHT22;49407;51.388;0.048;2022-10-16T03:42:55;10.80;99.90
63283;DHT22;49407;51.388;0.048;2022-10-16T03:45:24;10.80;99.90
63283;DHT22;49407;51.388;0.048;2022-10-16T03:47:51;10.90;99.90
63283;DHT22;49407;51.388;0.048;2022-10-16T03:50:17;10.90;99.90
63283;DHT22;49407;51.388;0.048;2022-10-16T03:55:49;10.90;99.90
63283;DHT22;49407;51.388;0.048;2022-10-16T03:58:16;10.90;99.90
63283;DHT22;49407;51.388;0.048;2022-10-16T04:00:45;10.90;99.90
63283;DHT22;49407;51.388;0.048;2022-10-16T04:03:14;10.90;99.90
63283;DHT22;49407;51.388;0.048;2022-10-16T04:05:41;10.90;99.90
63283;DHT22;49407;51.388;0.048;2022-10-16T04:08:08;10.80;99.90
63283;DHT22;49407;51.388;0.048;2022-10-16T04:10:34;10.80;99.90
63283;DHT22;49407;51.388;0.048;2022-10-16T04:13:01;10.70;99.90
63283;DHT22;49407;51.388;0.048;2022-10-16T04:15:28;10.70;99.90
63283;DHT22;49407;51.388;0.048;2022-10-16T04:17:55;10.70;99.90
63283;DHT22;49407;51.388;0.048;2022-10-16T04:20:22;10.80;99.90
63283;DHT22;49407;51.388;0.048;2022-10-16T04:23:10;10.80;99.90
63283;DHT22;49407;51.388;0.048;2022-10-16T04:25:37;10.70;99.90
63283;DHT22;49407;51.388;0.048;2022-10-16T04:28:03;10.70;99.90
63283;DHT22;49407;51.388;0.048;2022-10-16T04:30:30;10.70;99.90
63283;DHT22;49407;51.388;0.048;2022-10-16T04:36:04;10.70;99.90
63283;DHT22;49407;51.388;0.048;2022-10-16T04:38:31;10.60;99.90
63283;DHT22;49407;51.388;0.048;2022-10-16T04:40:58;10.60;99.90
63283;DHT22;49407;51.388;0.048;2022-10-16T04:43:46;10.50;99.90
63283;DHT22;49407;51.388;0.048;2022-10-16T04:46:12;10.60;99.90
63283;DHT22;49407;51.388;0.048;2022-10-16T04:48:39;10.50;99.90
63283;DHT22;49407;51.388;0.048;2022-10-16T04:51:06;10.50;99.90
63283;DHT22;49407;51.388;0.048;2022-10-16T04:53:54;10.50;99.90
63283;DHT22;49407;51.388;0.048;2022-10-16T04:56:21;10.50;99.90
63283;DHT22;49407;51.388;0.048;2022-10-16T04:58:48;10.40;99.90
63283;DHT22;49407;51.388;0.048;2022-10-16T05:01:15;10.40;99.90
63283;DHT22;49407;51.388;0.048;2022-10-16T05:06:49;10.40;99.90
63283;DHT22;49407;51.388;0.048;2022-10-16T05:09:16;10.40;99.90
63283;DHT22;49407;51.388;0.048;2022-10-16T05:11:43;10.30;99.90
63283;DHT22;49407;51.388;0.048;2022-10-16T05:14:15;10.30;99.90
63283;DHT22;49407;51.388;0.048;2022-10-16T05:16:42;10.40;99.90
63283;DHT22;49407;51.388;0.048;2022-10-16T05:19:08;10.40;99.90
63283;DHT22;49407;51.388;0.048;2022-10-16T05:21:55;10.40;99.90
63283;DHT22;49407;51.388;0.048;2022-10-16T05:27:28;10.40;99.90
63283;DHT22;49407;51.388;0.048;2022-10-16T05:29:55;10.50;99.90
63283;DHT22;49407;51.388;0.048;2022-10-16T05:32:22;10.50;99.90
63283;DHT22;49407;51.388;0.048;2022-10-16T05:35:08;10.50;99.90
63283;DHT22;49407;51.388;0.048;2022-10-16T05:37:38;10.50;99.90
63283;DHT22;49407;51.388;0.048;2022-10-16T05:40:05;10.60;99.90
63283;DHT22;49407;51.388;0.048;2022-10-16T05:42:32;10.50;99.90
63283;DHT22;49407;51.388;0.048;2022-10-16T05:44:59;10.60;99.90
63283;DHT22;49407;51.388;0.048;2022-10-16T05:47:26;10.50;99.90
63283;DHT22;49407;51.388;0.048;2022-10-16T05:49:54;10.50;99.90
63283;DHT22;49407;51.388;0.048;2022-10-16T05:52:22;10.40;99.90
63283;DHT22;49407;51.388;0.048;2022-10-16T05:54:49;10.40;99.90
63283;DHT22;49407;51.388;0.048;2022-10-16T05:57:16;10.30;99.90
63283;DHT22;49407;51.388;0.048;2022-10-16T05:59:43;10.30;99.90
63283;DHT22;49407;51.388;0.048;2022-10-16T06:02:12;10.30;99.90
63283;DHT22;49407;51.388;0.048;2022-10-16T06:04:42;10.20;99.90
63283;DHT22;49407;51.388;0.048;2022-10-16T06:07:08;10.20;99.90
63283;DHT22;49407;51.388;0.048;2022-10-16T06:09:35;10.10;99.90
63283;DHT22;49407;51.388;0.048;2022-10-16T06:12:02;10.10;99.90
63283;DHT22;49407;51.388;0.048;2022-10-16T06:14:29;10.10;99.90
63283;DHT22;49407;51.388;0.048;2022-10-16T06:16:56;10.10;99.90
63283;DHT22;49407;51.388;0.048;2022-10-16T06:19:23;10.10;99.90
63283;DHT22;49407;51.388;0.048;2022-10-16T06:21:50;10.10;99.90
63283;DHT22;49407;51.388;0.048;2022-10-16T06:24:17;10.10;99.90
63283;DHT22;49407;51.388;0.048;2022-10-16T06:26:44;10.00;99.90
63283;DHT22;49407;51.388;0.048;2022-10-16T06:29:11;10.00;99.90
63283;DHT22;49407;51.388;0.048;2022-10-16T06:31:37;10.00;99.90
63283;DHT22;49407;51.388;0.048;2022-10-16T06:34:04;10.00;99.90
63283;DHT22;49407;51.388;0.048;2022-10-16T06:36:36;10.00;99.90
63283;DHT22;49407;51.388;0.048;2022-10-16T06:39:03;10.00;99.90
63283;DHT22;49407;51.388;0.048;2022-10-16T06:41:31;9.90;99.90
63283;DHT22;49407;51.388;0.048;2022-10-16T06:44:08;9.90;99.90
63283;DHT22;49407;51.388;0.048;2022-10-16T06:46:35;9.90;99.90
63283;DHT22;49407;51.388;0.048;2022-10-16T06:49:02;9.90;99.90
63283;DHT22;49407;51.388;0.048;2022-10-16T06:51:29;9.90;99.90
63283;DHT22;49407;51.388;0.048;2022-10-16T06:54:00;9.90;99.90
63283;DHT22;49407;51.388;0.048;2022-10-16T06:56:30;9.80;99.90
63283;DHT22;49407;51.388;0.048;2022-10-16T06:58:58;9.80;99.90
63283;DHT22;49407;51.388;0.048;2022-10-16T07:01:26;9.80;99.90
63283;DHT22;49407;51.388;0.048;2022-10-16T07:03:59;9.70;99.90
63283;DHT22;49407;51.388;0.048;2022-10-16T07:06:26;9.70;99.90
63283;DHT22;49407;51.388;0.048;2022-10-16T07:08:53;9.60;99.90
63283;DHT22;49407;51.388;0.048;2022-10-16T07:11:22;9.60;99.90
63283;DHT22;49407;51.388;0.048;2022-10-16T07:13:51;9.70;99.90
63283;DHT22;49407;51.388;0.048;2022-10-16T07:16:30;9.70;99.90
63283;DHT22;49407;51.388;0.048;2022-10-16T07:18:59;9.80;99.90
63283;DHT22;49407;51.388;0.048;2022-10-16T07:21:34;9.80;99.90
63283;DHT22;49407;51.388;0.048;2022-10-16T07:24:14;9.80;99.90
63283;DHT22;49407;51.388;0.048;2022-10-16T07:26:42;9.80;99.90
63283;DHT22;49407;51.388;0.048;2022-10-16T07:29:15;9.80;99.90
63283;DHT22;49407;51.388;0.048;2022-10-16T07:31:43;9.80;99.90
63283;DHT22;49407;51.388;0.048;2022-10-16T07:34:13;9.80;99.90
63283;DHT22;49407;51.388;0.048;2022-10-16T07:36:40;9.80;99.90
63283;DHT22;49407;51.388;0.048;2022-10-16T07:39:08;9.90;99.90
63283;DHT22;49407;51.388;0.048;2022-10-16T07:41:35;10.00;99.90
63283;DHT22;49407;51.388;0.048;2022-10-16T07:44:03;10.10;99.90
63283;DHT22;49407;51.388;0.048;2022-10-16T07:46:30;10.20;99.90
63283;DHT22;49407;51.388;0.048;2022-10-16T07:48:57;10.30;99.90
63283;DHT22;49407;51.388;0.048;2022-10-16T07:51:25;10.40;99.90
63283;DHT22;49407;51.388;0.048;2022-10-16T07:53:52;10.50;99.90
63283;DHT22;49407;51.388;0.048;2022-10-16T07:56:19;10.70;99.90
63283;DHT22;49407;51.388;0.048;2022-10-16T07:58:47;10.80;99.90
63283;DHT22;49407;51.388;0.048;2022-10-16T08:01:16;10.90;99.90
63283;DHT22;49407;51.388;0.048;2022-10-16T08:03:47;11.00;99.90
63283;DHT22;49407;51.388;0.048;2022-10-16T08:06:15;11.10;99.90
63283;DHT22;49407;51.388;0.048;2022-10-16T08:08:42;11.30;99.90
63283;DHT22;49407;51.388;0.048;2022-10-16T08:11:09;11.50;99.90
63283;DHT22;49407;51.388;0.048;2022-10-16T08:13:36;11.80;99.90
63283;DHT22;49407;51.388;0.048;2022-10-16T08:16:05;12.20;99.90
63283;DHT22;49407;51.388;0.048;2022-10-16T08:18:37;12.50;99.90
63283;DHT22;49407;51.388;0.048;2022-10-16T08:21:06;12.80;99.90
63283;DHT22;49407;51.388;0.048;2022-10-16T08:23:33;13.10;99.90
63283;DHT22;49407;51.388;0.048;2022-10-16T08:26:06;13.20;99.90
63283;DHT22;49407;51.388;0.048;2022-10-16T08:28:33;13.30;99.90
63283;DHT22;49407;51.388;0.048;2022-10-16T08:31:12;13.40;99.90
63283;DHT22;49407;51.388;0.048;2022-10-16T08:33:41;13.50;99.90
63283;DHT22;49407;51.388;0.048;2022-10-16T08:36:10;13.50;99.90
63283;DHT22;49407;51.388;0.048;2022-10-16T08:38:37;13.50;99.90
63283;DHT22;49407;51.388;0.048;2022-10-16T08:47:00;13.60;99.90
63283;DHT22;49407;51.388;0.048;2022-10-16T08:49:29;13.60;99.90
63283;DHT22;49407;51.388;0.048;2022-10-16T08:51:56;13.60;99.90
63283;DHT22;49407;51.388;0.048;2022-10-16T08:54:32;13.60;99.90
63283;DHT22;49407;51.388;0.048;2022-10-16T08:57:11;13.60;99.90
63283;DHT22;49407;51.388;0.048;2022-10-16T08:59:39;13.60;99.90
63283;DHT22;49407;51.388;0.048;2022-10-16T09:02:30;13.70;99.90
63283;DHT22;49407;51.388;0.048;2022-10-16T09:07:53;13.80;99.90
63283;DHT22;49407;51.388;0.048;2022-10-16T09:11:03;13.80;99.90
63283;DHT22;49407;51.388;0.048;2022-10-16T09:13:27;13.90;99.90
63283;DHT22;49407;51.388;0.048;2022-10-16T09:21:24;14.20;99.90
63283;DHT22;49407;51.388;0.048;2022-10-16T09:23:54;14.30;99.90
63283;DHT22;49407;51.388;0.048;2022-10-16T09:26:23;14.40;99.90
63283;DHT22;49407;51.388;0.048;2022-10-16T09:28:52;14.50;99.90
63283;DHT22;49407;51.388;0.048;2022-10-16T09:31:21;14.70;99.90
63283;DHT22;49407;51.388;0.048;2022-10-16T09:34:16;14.80;99.90
63283;DHT22;49407;51.388;0.048;2022-10-16T09:36:46;14.90;99.90
63283;DHT22;49407;51.388;0.048;2022-10-16T09:39:13;15.10;99.90
63283;DHT22;49407;51.388;0.048;2022-10-16T09:41:43;15.30;99.90
63283;DHT22;49407;51.388;0.048;2022-10-16T09:44:30;15.70;99.90
63283;DHT22;49407;51.388;0.048;2022-10-16T09:47:03;16.20;99.90
63283;DHT22;49407;51.388;0.048;2022-10-16T09:49:30;16.70;99.90
63283;DHT22;49407;51.388;0.048;2022-10-16T09:52:12;17.30;99.90
63283;DHT22;49407;51.388;0.048;2022-10-16T09:57:16;18.30;99.40
63283;DHT22;49407;51.388;0.048;2022-10-16T09:59:51;18.70;98.30
63283;DHT22;49407;51.388;0.048;2022-10-16T10:02:44;18.80;97.20
63283;DHT22;49407;51.388;0.048;2022-10-16T10:05:25;19.00;96.60
63283;DHT22;49407;51.388;0.048;2022-10-16T10:08:00;19.00;95.80
63283;DHT22;49407;51.388;0.048;2022-10-16T10:10:30;19.00;95.10
63283;DHT22;49407;51.388;0.048;2022-10-16T10:12:57;19.10;94.20
63283;DHT22;49407;51.388;0.048;2022-10-16T10:15:25;19.30;94.10
63283;DHT22;49407;51.388;0.048;2022-10-16T10:17:55;19.70;93.80
63283;DHT22;49407;51.388;0.048;2022-10-16T10:20:34;20.00;93.40
63283;DHT22;49407;51.388;0.048;2022-10-16T10:23:21;20.60;92.00
63283;DHT22;49407;51.388;0.048;2022-10-16T10:25:57;21.20;90.40
63283;DHT22;49407;51.388;0.048;2022-10-16T10:31:17;22.40;86.00
63283;DHT22;49407;51.388;0.048;2022-10-16T10:36:40;22.80;79.00
63283;DHT22;49407;51.388;0.048;2022-10-16T10:39:28;23.10;77.20
63283;DHT22;49407;51.388;0.048;2022-10-16T10:42:15;23.70;74.80
63283;DHT22;49407;51.388;0.048;2022-10-16T10:45:18;24.10;73.70
63283;DHT22;49407;51.388;0.048;2022-10-16T10:48:24;25.00;73.90
63283;DHT22;49407;51.388;0.048;2022-10-16T10:51:08;25.70;72.50
63283;DHT22;49407;51.388;0.048;2022-10-16T10:54:01;25.90;70.10
63283;DHT22;49407;51.388;0.048;2022-10-16T11:02:02;26.00;65.80
63283;DHT22;49407;51.388;0.048;2022-10-16T11:04:54;26.10;65.70
63283;DHT22;49407;51.388;0.048;2022-10-16T11:07:29;26.20;65.40
63283;DHT22;49407;51.388;0.048;2022-10-16T11:10:02;26.20;64.70
63283;DHT22;49407;51.388;0.048;2022-10-16T11:12:38;26.20;63.10
63283;DHT22;49407;51.388;0.048;2022-10-16T11:18:12;26.20;63.60
63283;DHT22;49407;51.388;0.048;2022-10-16T11:20:49;26.00;63.50
63283;DHT22;49407;51.388;0.048;2022-10-16T11:23:40;25.60;62.80
63283;DHT22;49407;51.388;0.048;2022-10-16T11:26:16;24.90;64.00
63283;DHT22;49407;51.388;0.048;2022-10-16T11:28:51;24.50;64.10
63283;DHT22;49407;51.388;0.048;2022-10-16T11:31:46;24.10;64.90
63283;DHT22;49407;51.388;0.048;2022-10-16T11:37:14;23.70;65.30
63283;DHT22;49407;51.388;0.048;2022-10-16T11:39:44;23.40;65.30
63283;DHT22;49407;51.388;0.048;2022-10-16T11:42:16;23.10;66.40
63283;DHT22;49407;51.388;0.048;2022-10-16T11:47:45;22.70;66.60
63283;DHT22;49407;51.388;0.048;2022-10-16T11:55:55;23.40;68.20
63283;DHT22;49407;51.388;0.048;2022-10-16T11:58:43;24.40;67.90
63283;DHT22;49407;51.388;0.048;2022-10-16T12:01:19;25.30;64.20
63283;DHT22;49407;51.388;0.048;2022-10-16T12:06:47;24.90;64.20
63283;DHT22;49407;51.388;0.048;2022-10-16T12:09:22;25.30;63.50
63283;DHT22;49407;51.388;0.048;2022-10-16T12:11:51;25.00;62.60
63283;DHT22;49407;51.388;0.048;2022-10-16T12:14:36;24.70;63.90
63283;DHT22;49407;51.388;0.048;2022-10-16T12:17:37;24.20;64.40
63283;DHT22;49407;51.388;0.048;2022-10-16T12:25:31;22.20;67.90
63283;DHT22;49407;51.388;0.048;2022-10-16T12:28:01;21.70;69.10
63283;DHT22;49407;51.388;0.048;2022-10-16T12:30:31;21.20;70.60
63283;DHT22;49407;51.388;0.048;2022-10-16T12:33:32;20.90;71.70
63283;DHT22;49407;51.388;0.048;2022-10-16T12:36:02;20.60;70.70
63283;DHT22;49407;51.388;0.048;2022-10-16T12:38:49;20.30;71.90
63283;DHT22;49407;51.388;0.048;2022-10-16T12:41:31;20.00;73.00
63283;DHT22;49407;51.388;0.048;2022-10-16T12:44:01;19.80;74.20
63283;DHT22;49407;51.388;0.048;2022-10-16T12:51:36;19.40;76.70
63283;DHT22;49407;51.388;0.048;2022-10-16T12:54:24;19.30;76.70
63283;DHT22;49407;51.388;0.048;2022-10-16T12:57:25;19.20;77.40
63283;DHT22;49407;51.388;0.048;2022-10-16T13:00:13;19.00;77.40
63283;DHT22;49407;51.388;0.048;2022-10-16T13:08:39;18.80;80.50
63283;DHT22;49407;51.388;0.048;2022-10-16T13:11:20;18.80;81.10
63283;DHT22;49407;51.388;0.048;2022-10-16T13:13:54;18.80;82.10
63283;DHT22;49407;51.388;0.048;2022-10-16T13:16:44;18.80;81.90
63283;DHT22;49407;51.388;0.048;2022-10-16T13:19:40;18.70;81.80
63283;DHT22;49407;51.388;0.048;2022-10-16T13:28:10;18.50;83.30
63283;DHT22;49407;51.388;0.048;2022-10-16T13:30:43;18.40;84.10
63283;DHT22;49407;51.388;0.048;2022-10-16T13:33:36;18.30;84.70
63283;DHT22;49407;51.388;0.048;2022-10-16T13:36:05;18.30;85.80
63283;DHT22;49407;51.388;0.048;2022-10-16T13:38:34;18.30;86.20
63283;DHT22;49407;51.388;0.048;2022-10-16T13:41:05;18.30;86.50
63283;DHT22;49407;51.388;0.048;2022-10-16T13:43:42;18.30;86.90
63283;DHT22;49407;51.388;0.048;2022-10-16T13:46:18;18.30;86.90
63283;DHT22;49407;51.388;0.048;2022-10-16T13:48:59;18.40;87.40
63283;DHT22;49407;51.388;0.048;2022-10-16T13:51:27;18.40;86.50
63283;DHT22;49407;51.388;0.048;2022-10-16T13:53:56;18.50;87.10
63283;DHT22;49407;51.388;0.048;2022-10-16T13:56:29;18.60;87.30
63283;DHT22;49407;51.388;0.048;2022-10-16T13:59:05;18.60;86.50
63283;DHT22;49407;51.388;0.048;2022-10-16T14:01:41;18.60;86.10
63283;DHT22;49407;51.388;0.048;2022-10-16T14:04:12;18.60;86.70
63283;DHT22;49407;51.388;0.048;2022-10-16T14:06:45;18.60;86.80
63283;DHT22;49407;51.388;0.048;2022-10-16T14:09:25;18.60;87.40
63283;DHT22;49407;51.388;0.048;2022-10-16T14:11:56;18.60;88.10
63283;DHT22;49407;51.388;0.048;2022-10-16T14:14:24;18.60;88.80
63283;DHT22;49407;51.388;0.048;2022-10-16T14:16:51;18.60;89.00
63283;DHT22;49407;51.388;0.048;2022-10-16T14:19:25;18.50;89.50
63283;DHT22;49407;51.388;0.048;2022-10-16T14:21:52;18.60;90.00
63283;DHT22;49407;51.388;0.048;2022-10-16T14:24:40;18.50;89.80
63283;DHT22;49407;51.388;0.048;2022-10-16T14:27:34;18.40;90.00
63283;DHT22;49407;51.388;0.048;2022-10-16T14:30:20;18.40;89.80
63283;DHT22;49407;51.388;0.048;2022-10-16T14:33:18;18.20;90.10
63283;DHT22;49407;51.388;0.048;2022-10-16T14:35:46;18.20;90.60
63283;DHT22;49407;51.388;0.048;2022-10-16T14:38:26;18.10;90.70
63283;DHT22;49407;51.388;0.048;2022-10-16T14:40:53;18.10;90.50
63283;DHT22;49407;51.388;0.048;2022-10-16T14:43:35;18.10;90.90
63283;DHT22;49407;51.388;0.048;2022-10-16T14:46:18;18.00;90.90
63283;DHT22;49407;51.388;0.048;2022-10-16T14:49:27;18.00;91.20
63283;DHT22;49407;51.388;0.048;2022-10-16T14:51:47;17.90;91.40
63283;DHT22;49407;51.388;0.048;2022-10-16T14:54:16;17.90;91.60
63283;DHT22;49407;51.388;0.048;2022-10-16T14:56:51;17.90;91.80
63283;DHT22;49407;51.388;0.048;2022-10-16T14:59:34;17.80;92.00
63283;DHT22;49407;51.388;0.048;2022-10-16T15:02:28;17.90;92.10
63283;DHT22;49407;51.388;0.048;2022-10-16T15:04:56;17.80;92.30
63283;DHT22;49407;51.388;0.048;2022-10-16T15:07:23;17.80;92.80
63283;DHT22;49407;51.388;0.048;2022-10-16T15:09:55;17.70;92.60
63283;DHT22;49407;51.388;0.048;2022-10-16T15:12:23;17.60;92.80
63283;DHT22;49407;51.388;0.048;2022-10-16T15:14:50;17.50;93.00
63283;DHT22;49407;51.388;0.048;2022-10-16T15:17:17;17.40;93.20
63283;DHT22;49407;51.388;0.048;2022-10-16T15:19:47;17.30;93.70
63283;DHT22;49407;51.388;0.048;2022-10-16T15:22:14;17.20;93.70
63283;DHT22;49407;51.388;0.048;2022-10-16T15:24:43;17.10;93.90
63283;DHT22;49407;51.388;0.048;2022-10-16T15:27:10;17.00;94.20
63283;DHT22;49407;51.388;0.048;2022-10-16T15:29:37;16.90;94.50
63283;DHT22;49407;51.388;0.048;2022-10-16T15:32:04;16.90;95.00
63283;DHT22;49407;51.388;0.048;2022-10-16T15:34:33;16.80;95.50
63283;DHT22;49407;51.388;0.048;2022-10-16T15:37:03;16.80;95.90
63283;DHT22;49407;51.388;0.048;2022-10-16T15:39:30;16.80;95.80
63283;DHT22;49407;51.388;0.048;2022-10-16T15:41:57;16.70;95.90
63283;DHT22;49407;51.388;0.048;2022-10-16T15:44:24;16.60;96.10
63283;DHT22;49407;51.388;0.048;2022-10-16T15:46:56;16.60;96.70
63283;DHT22;49407;51.388;0.048;2022-10-16T15:49:23;16.60;96.90
63283;DHT22;49407;51.388;0.048;2022-10-16T15:51:50;16.50;97.50
63283;DHT22;49407;51.388;0.048;2022-10-16T15:54:18;16.50;97.30
63283;DHT22;49407;51.388;0.048;2022-10-16T15:56:48;16.40;97.80
63283;DHT22;49407;51.388;0.048;2022-10-16T15:59:15;16.40;97.90
63283;DHT22;49407;51.388;0.048;2022-10-16T16:01:42;16.40;98.30
63283;DHT22;49407;51.388;0.048;2022-10-16T16:04:10;16.30;98.30
63283;DHT22;49407;51.388;0.048;2022-10-16T16:06:57;16.30;98.50
63283;DHT22;49407;51.388;0.048;2022-10-16T16:09:24;16.30;98.90
63283;DHT22;49407;51.388;0.048;2022-10-16T16:11:51;16.20;99.10
63283;DHT22;49407;51.388;0.048;2022-10-16T16:14:21;16.20;99.40
63283;DHT22;49407;51.388;0.048;2022-10-16T16:16:48;16.20;99.70
63283;DHT22;49407;51.388;0.048;2022-10-16T16:19:15;16.10;99.90
63283;DHT22;49407;51.388;0.048;2022-10-16T16:21:45;16.10;99.90
63283;DHT22;49407;51.388;0.048;2022-10-16T16:24:12;16.00;99.90
63283;DHT22;49407;51.388;0.048;2022-10-16T16:26:39;16.00;99.90
63283;DHT22;49407;51.388;0.048;2022-10-16T16:29:14;16.00;99.90
63283;DHT22;49407;51.388;0.048;2022-10-16T16:31:42;15.90;99.90
63283;DHT22;49407;51.388;0.048;2022-10-16T16:34:09;15.80;99.90
63283;DHT22;49407;51.388;0.048;2022-10-16T16:36:37;15.80;99.90
63283;DHT22;49407;51.388;0.048;2022-10-16T16:39:04;15.70;99.90
63283;DHT22;49407;51.388;0.048;2022-10-16T16:41:30;15.70;99.90
63283;DHT22;49407;51.388;0.048;2022-10-16T16:44:04;15.70;99.90
63283;DHT22;49407;51.388;0.048;2022-10-16T16:46:32;15.70;99.90
63283;DHT22;49407;51.388;0.048;2022-10-16T16:48:59;15.60;99.90
63283;DHT22;49407;51.388;0.048;2022-10-16T16:51:26;15.50;99.90
63283;DHT22;49407;51.388;0.048;2022-10-16T16:53:55;15.50;99.90
63283;DHT22;49407;51.388;0.048;2022-10-16T16:56:23;15.40;99.90
63283;DHT22;49407;51.388;0.048;2022-10-16T16:58:53;15.40;99.90
63283;DHT22;49407;51.388;0.048;2022-10-16T17:01:21;15.30;99.90
63283;DHT22;49407;51.388;0.048;2022-10-16T17:06:56;15.30;99.90
63283;DHT22;49407;51.388;0.048;2022-10-16T17:09:23;15.20;99.90
63283;DHT22;49407;51.388;0.048;2022-10-16T17:11:50;15.20;99.90
63283;DHT22;49407;51.388;0.048;2022-10-16T17:14:19;15.20;99.90
63283;DHT22;49407;51.388;0.048;2022-10-16T17:16:46;15.20;99.90
63283;DHT22;49407;51.388;0.048;2022-10-16T17:19:16;15.20;99.90
63283;DHT22;49407;51.388;0.048;2022-10-16T17:21:43;15.20;99.90
63283;DHT22;49407;51.388;0.048;2022-10-16T17:24:11;15.20;99.90
63283;DHT22;49407;51.388;0.048;2022-10-16T17:26:38;15.10;99.90
63283;DHT22;49407;51.388;0.048;2022-10-16T17:29:10;15.00;99.90
63283;DHT22;49407;51.388;0.048;2022-10-16T17:31:38;14.90;99.90
63283;DHT22;49407;51.388;0.048;2022-10-16T17:34:08;14.90;99.90
63283;DHT22;49407;51.388;0.048;2022-10-16T17:36:37;14.80;99.90
63283;DHT22;49407;51.388;0.048;2022-10-16T17:39:06;14.70;99.90
63283;DHT22;49407;51.388;0.048;2022-10-16T17:41:34;14.70;99.90